Aérodrome :
LOGIN :

S'inscrire | Disclaimer

   EN    FR    IT 

 










Légende :    VFR   VFR Marginal   IFR   IFR Intensif   IFR Très Intensif
Visi : 
Plafond : 
>= 8 km
>= 3000ft
5 à 8 km
1000 à 3000 ft
1500m à 5 km
500 à 1000 ft
800 à 1500m
200 à 500 ft
< 800m
< 200 ft
Symboles :   Orages  Brouillard  Fortes neiges  Fortes précipitations  Vent > 20 kt
SIGMETs :   Divers  Orages  Givrage  Turbulence  Onde Orograph.  Cendres Volcan.






- Altitude de l'aérodrome : 1411 ft
- Code IATA : SZG


LOWS - Salzburg

DERNIER METAR :
  • 171150Z 19004KT 140V280 9999 FEW014 SCT020 BKN030 06/03 Q1008 TEMPO 31010KT 4500 SHRA FEW020CB BKN030

METARs EXPIRÉS :
  • 171120Z VRB03KT 9999 FEW010 SCT016 BKN030 06/03 Q1008 TEMPO BKN014
  • 171050Z 14005KT 110V170 9999 -SHRA FEW008 SCT014 BKN024 05/02 Q1008 TEMPO BKN014
  • 171020Z 15007KT 9999 FEW006 SCT012 BKN022 04/03 Q1008 TEMPO BKN012
  • 170950Z 13003KT 9999 FEW006 SCT010 BKN020 04/02 Q1008 TEMPO BKN010
  • 170920Z AUTO 15004KT 110V190 9999 SCT004 BKN018 04/02 Q1009 NOSIG
  • 170850Z AUTO 11003KT 080V170 9999 FEW004 BKN008 03/02 Q1008 TEMPO BKN015
  • 170820Z AUTO 14003KT 110V170 9999 -RADZ FEW003 SCT013 BKN015 01/01 Q1008 TEMPO BKN014
  • 170750Z AUTO 13002KT 7000 -RA FEW003 SCT006 BKN014 00/00 Q1008 RERA TEMPO 2000 SN BKN005
  • 170720Z AUTO 12002KT 6000 RASN FEW003 SCT004 BKN012 00/00 Q1008 RERA TEMPO 2000 SN BKN005

TAF TAF LOWS
Valide du 17 à 12h jusqu'au 18 à 12h UTC


171115Z 1712/1812 31006KT 9999 SCT025 BKN050 TX08/1714Z TN02/1804Z
TEMPO 1712/1719 30015G25KT 4500 SHRA SCT020CB BKN035
PROB30 1712/1718 2500 TSRASN BKN008 BKN020CB
TEMPO 1719/1808 -SHRA
PROB30 1719/1724 3500 SHRASN BKN012
TEMPO 1808/1812 31010G20KT 4500 SHRA SCT012 BKN025



MET'MAP, la Météo Aéronautique d'un coup d'oeil ! - Copyright ORBIFLY Décembre 2007 - Disclaimer

ORBIFLY MET'MAP TEAM :

Programmation & Développement : Alexandra Zaïnal
Sur une idée originale de : Baudouin d'Aumeries
Soutien technique & logistique : Manuel Goepfert
Assistance : Marc-Olivier Méhu




SOURCES & CREDITS :

   NOAA